Time,TemperatureF,DewpointF,PressureIn,WindDirection,WindDirectionDegrees,WindSpeedMPH,WindSpeedGustMPH,Humidity,HourlyPrecipIn,Conditions,Clouds,dailyrainin,SoftwareType,DateUTC
2013-11-07 00:13:00,62.0,49.0,29.98,SSW,204,1.0,5.0,62,0.00,,,0.00,,2013-11-07 05:13:00,
2013-11-07 00:24:00,62.0,49.0,29.97,SW,235,1.0,5.0,62,0.00,,,0.00,,2013-11-07 05:24:00,
2013-11-07 00:44:00,61.0,48.0,29.97,SSW,196,0.0,5.0,62,0.00,,,0.00,,2013-11-07 05:44:00,
2013-11-07 00:54:00,61.0,48.0,29.96,South,186,3.0,6.0,62,0.00,,,0.00,,2013-11-07 05:54:00,
2013-11-07 01:24:00,62.0,49.0,29.95,SW,228,2.0,6.0,62,0.00,,,0.00,,2013-11-07 06:24:00,
2013-11-07 01:52:00,62.0,50.0,29.94,SW,224,11.0,18.0,64,0.00,,,0.00,,2013-11-07 06:52:00,
2013-11-07 02:12:00,60.0,50.0,29.94,West,259,5.0,18.0,70,0.00,,,0.00,,2013-11-07 07:12:00,
2013-11-07 02:22:00,58.0,52.0,29.93,West,273,3.0,17.0,79,0.00,,,0.00,,2013-11-07 07:22:00,
2013-11-07 02:42:00,58.0,52.0,29.93,SSW,193,2.0,15.0,79,0.01,,,0.01,,2013-11-07 07:42:00,
2013-11-07 02:52:00,57.0,51.0,29.93,SSW,211,0.0,11.0,80,0.01,,,0.01,,2013-11-07 07:52:00,
2013-11-07 03:22:00,57.0,52.0,29.93,SSW,192,3.0,9.0,83,0.02,,,0.02,,2013-11-07 08:22:00,
2013-11-07 03:42:00,56.0,52.0,29.92,SW,226,1.0,8.0,85,0.02,,,0.03,,2013-11-07 08:42:00,
2013-11-07 03:53:00,55.0,51.0,29.91,SSW,211,3.0,10.0,87,0.04,,,0.05,,2013-11-07 08:53:00,
2013-11-07 04:11:00,55.0,52.0,29.91,WSW,254,4.0,11.0,89,0.04,,,0.05,,2013-11-07 09:11:00,
2013-11-07 04:22:00,54.0,51.0,29.91,South,182,2.0,6.0,90,0.06,,,0.08,,2013-11-07 09:22:00,
2013-11-07 04:42:00,54.0,51.0,29.92,West,263,6.0,10.0,91,0.08,,,0.11,,2013-11-07 09:42:00,
2013-11-07 04:53:00,54.0,51.0,29.93,West,278,5.0,9.0,91,0.11,,,0.16,,2013-11-07 09:53:00,
2013-11-07 05:13:00,54.0,52.0,29.92,SSW,209,5.0,11.0,92,0.13,,,0.18,,2013-11-07 10:13:00,
2013-11-07 05:23:00,54.0,52.0,29.92,WSW,254,2.0,12.0,92,0.12,,,0.20,,2013-11-07 10:23:00,
2013-11-07 05:42:00,54.0,52.0,29.90,WSW,246,5.0,8.0,92,0.11,,,0.22,,2013-11-07 10:42:00,
2013-11-07 05:53:00,53.0,51.0,29.91,West,260,3.0,9.0,92,0.08,,,0.24,,2013-11-07 10:53:00,
2013-11-07 06:12:00,53.0,51.0,29.92,WSW,258,6.0,13.0,93,0.15,,,0.33,,2013-11-07 11:12:00,
2013-11-07 06:22:00,53.0,51.0,29.92,West,259,12.0,15.0,93,0.22,,,0.42,,2013-11-07 11:22:00,
2013-11-07 06:43:00,49.0,46.0,29.95,NNW,346,9.0,19.0,90,0.28,,,0.49,,2013-11-07 11:43:00,
2013-11-07 06:52:00,48.0,46.0,29.93,NNW,342,8.0,17.0,92,0.28,,,0.52,,2013-11-07 11:52:00,
2013-11-07 07:12:00,47.0,45.0,29.95,NW,304,7.0,16.0,92,0.20,,,0.53,,2013-11-07 12:12:00,
2013-11-07 07:22:00,46.0,44.0,29.95,NNW,339,10.0,14.0,92,0.13,,,0.54,,2013-11-07 12:22:00,
2013-11-07 07:42:00,46.0,44.0,29.96,NW,319,7.0,13.0,92,0.06,,,0.55,,2013-11-07 12:42:00,
2013-11-07 07:52:00,46.0,44.0,29.96,NW,304,6.0,16.0,93,0.05,,,0.57,,2013-11-07 12:52:00,
2013-11-07 08:12:00,45.0,43.0,29.97,NW,318,7.0,14.0,93,0.07,,,0.60,,2013-11-07 13:12:00,
2013-11-07 08:22:00,45.0,43.0,29.98,NW,319,9.0,14.0,93,0.08,,,0.62,,2013-11-07 13:22:00,
2013-11-07 08:42:00,45.0,43.0,29.99,West,275,8.0,12.0,93,0.09,,,0.64,,2013-11-07 13:42:00,
2013-11-07 08:52:00,44.0,42.0,29.98,NNW,342,6.0,12.0,93,0.08,,,0.65,,2013-11-07 13:52:00,
2013-11-07 09:12:00,44.0,42.0,30.00,NW,307,8.0,19.0,93,0.06,,,0.65,,2013-11-07 14:12:00,
2013-11-07 09:22:00,44.0,42.0,30.00,NW,315,9.0,18.0,93,0.04,,,0.66,,2013-11-07 14:22:00,
2013-11-07 09:42:00,43.0,41.0,30.02,NW,323,12.0,17.0,93,0.03,,,0.67,,2013-11-07 14:42:00,
2013-11-07 09:52:00,43.0,41.0,30.02,NW,325,7.0,14.0,93,0.02,,,0.67,,2013-11-07 14:52:00,
2013-11-07 10:11:00,43.0,41.0,30.04,WNW,300,6.0,13.0,93,0.02,,,0.67,,2013-11-07 15:11:00,
2013-11-07 10:22:00,43.0,41.0,30.04,NW,312,10.0,15.0,93,0.01,,,0.67,,2013-11-07 15:22:00,
2013-11-07 10:43:00,42.0,40.0,30.04,NNW,333,6.0,20.0,93,0.00,,,0.67,,2013-11-07 15:43:00,
2013-11-07 10:53:00,42.0,40.0,30.05,NW,325,10.0,17.0,93,0.01,,,0.68,,2013-11-07 15:53:00,
2013-11-07 11:13:00,41.0,39.0,30.05,WNW,287,10.0,19.0,93,0.01,,,0.68,,2013-11-07 16:13:00,
2013-11-07 11:23:00,41.0,39.0,30.06,WNW,300,9.0,16.0,93,0.02,,,0.69,,2013-11-07 16:23:00,
2013-11-07 11:42:00,41.0,39.0,30.06,West,281,8.0,21.0,93,0.02,,,0.69,,2013-11-07 16:42:00,
2013-11-07 11:52:00,41.0,39.0,30.07,NW,318,7.0,14.0,94,0.01,,,0.69,,2013-11-07 16:52:00,
2013-11-07 12:12:00,41.0,39.0,30.06,WNW,302,10.0,20.0,93,0.01,,,0.69,,2013-11-07 17:12:00,
2013-11-07 12:22:00,41.0,39.0,30.06,NW,311,9.0,18.0,92,0.00,,,0.69,,2013-11-07 17:22:00,
2013-11-07 12:43:00,41.0,39.0,30.06,NW,317,8.0,14.0,92,0.00,,,0.69,,2013-11-07 17:43:00,
2013-11-07 13:12:00,42.0,39.0,30.06,WSW,258,7.0,16.0,90,0.00,,,0.69,,2013-11-07 18:12:00,
2013-11-07 13:23:00,42.0,39.0,30.06,WSW,257,10.0,13.0,88,0.00,,,0.69,,2013-11-07 18:23:00,
2013-11-07 13:42:00,42.0,38.0,30.05,WNW,283,10.0,16.0,87,0.00,,,0.69,,2013-11-07 18:42:00,
2013-11-07 13:52:00,42.0,38.0,30.06,WNW,286,10.0,16.0,87,0.00,,,0.69,,2013-11-07 18:52:00,
2013-11-07 14:22:00,42.0,36.0,30.06,West,262,11.0,21.0,78,0.00,,,0.69,,2013-11-07 19:22:00,
2013-11-07 14:42:00,41.0,34.0,30.06,WNW,296,10.0,18.0,77,0.00,,,0.69,,2013-11-07 19:42:00,
2013-11-07 14:52:00,42.0,35.0,30.05,WNW,283,8.0,16.0,76,0.00,,,0.69,,2013-11-07 19:52:00,
2013-11-07 15:22:00,43.0,36.0,30.05,NW,312,7.0,12.0,75,0.00,,,0.69,,2013-11-07 20:22:00,
2013-11-07 15:42:00,42.0,33.0,30.06,WSW,253,10.0,22.0,70,0.00,,,0.69,,2013-11-07 20:42:00,
2013-11-07 15:52:00,42.0,34.0,30.04,West,260,8.0,17.0,72,0.00,,,0.69,,2013-11-07 20:52:00,
2013-11-07 16:12:00,41.0,35.0,30.04,NNW,329,8.0,18.0,80,0.00,,,0.69,,2013-11-07 21:12:00,
2013-11-07 16:22:00,40.0,35.0,30.04,NW,313,8.0,15.0,81,0.00,,,0.69,,2013-11-07 21:22:00,
2013-11-07 16:43:00,40.0,34.0,30.05,NW,304,7.0,13.0,80,0.00,,,0.69,,2013-11-07 21:43:00,
2013-11-07 16:54:00,40.0,33.0,30.05,WNW,296,10.0,15.0,76,0.00,,,0.69,,2013-11-07 21:54:00,
2013-11-07 17:13:00,41.0,33.0,30.06,West,272,8.0,16.0,74,0.00,,,0.69,,2013-11-07 22:13:00,
2013-11-07 17:24:00,41.0,33.0,30.06,West,267,7.0,21.0,73,0.00,,,0.69,,2013-11-07 22:24:00,
2013-11-07 17:43:00,41.0,32.0,30.07,WNW,297,8.0,19.0,70,0.00,,,0.69,,2013-11-07 22:43:00,
2013-11-07 17:53:00,40.0,30.0,30.08,West,277,12.0,19.0,67,0.00,,,0.69,,2013-11-07 22:53:00,
2013-11-07 18:12:00,40.0,30.0,30.09,WNW,299,12.0,16.0,67,0.00,,,0.69,,2013-11-07 23:12:00,
2013-11-07 18:22:00,40.0,29.0,30.10,West,259,14.0,21.0,64,0.00,,,0.69,,2013-11-07 23:22:00,
2013-11-07 18:43:00,39.0,27.0,30.11,WNW,284,10.0,16.0,63,0.00,,,0.69,,2013-11-07 23:43:00,
2013-11-07 18:53:00,39.0,27.0,30.12,WNW,290,8.0,16.0,63,0.00,,,0.69,,2013-11-07 23:53:00,
2013-11-07 19:12:00,39.0,27.0,30.13,WNW,294,10.0,19.0,61,0.00,,,0.69,,2013-11-08 00:12:00,
2013-11-07 19:22:00,39.0,27.0,30.13,NW,315,7.0,13.0,62,0.00,,,0.69,,2013-11-08 00:22:00,
2013-11-07 19:42:00,39.0,27.0,30.14,West,265,15.0,22.0,61,0.00,,,0.69,,2013-11-08 00:42:00,
2013-11-07 19:52:00,38.0,25.0,30.14,NW,321,9.0,16.0,60,0.00,,,0.69,,2013-11-08 00:52:00,
2013-11-07 20:22:00,38.0,26.0,30.14,West,271,5.0,13.0,61,0.00,,,0.69,,2013-11-08 01:22:00,
2013-11-07 20:42:00,38.0,26.0,30.14,WNW,290,6.0,17.0,61,0.00,,,0.69,,2013-11-08 01:42:00,
2013-11-07 20:52:00,38.0,26.0,30.14,West,270,6.0,11.0,61,0.00,,,0.69,,2013-11-08 01:52:00,
2013-11-07 21:12:00,37.0,25.0,30.14,NW,307,6.0,9.0,62,0.00,,,0.69,,2013-11-08 02:12:00,
2013-11-07 21:22:00,37.0,25.0,30.14,West,271,4.0,11.0,62,0.00,,,0.69,,2013-11-08 02:22:00,
2013-11-07 21:42:00,37.0,26.0,30.11,West,270,3.0,6.0,63,0.00,,,0.69,,2013-11-08 02:42:00,
2013-11-07 21:52:00,37.0,26.0,30.11,WNW,284,4.0,8.0,64,0.00,,,0.69,,2013-11-08 02:52:00,
2013-11-07 22:12:00,37.0,26.0,30.11,West,273,4.0,8.0,64,0.00,,,0.69,,2013-11-08 03:12:00,
2013-11-07 22:22:00,37.0,26.0,30.11,West,280,4.0,7.0,65,0.00,,,0.69,,2013-11-08 03:22:00,
2013-11-07 22:44:00,37.0,26.0,30.11,West,276,7.0,10.0,65,0.00,,,0.69,,2013-11-08 03:44:00,
2013-11-07 22:55:00,37.0,26.0,30.11,WNW,290,7.0,9.0,65,0.00,,,0.69,,2013-11-08 03:55:00,
2013-11-07 23:24:00,37.0,27.0,30.11,West,279,6.0,13.0,66,0.00,,,0.69,,2013-11-08 04:24:00,
2013-11-07 23:44:00,37.0,27.0,30.11,WNW,299,7.0,13.0,67,0.00,,,0.69,,2013-11-08 04:44:00,
2013-11-07 23:54:00,37.0,27.0,30.11,NW,306,7.0,12.0,67,0.00,,,0.69,,2013-11-08 04:54:00,